Tiempo atmosférico en la estación meteorológica de La Roda de Andalucía, Sevilla (410 m.)



Fecha
DESCASC
Temp. máxima en grados centígrados (hora)
DESCASC
Temp. mínima en grados centígrados (hora)
DESCASC
Temp. media en grados centígrados
DESCASC
Racha de viento máxima en m/sg (hora)
DESCASC
Velocidad máxima media en intervalos de 10 minutos(hora)
DESCASC
Precipitaciones diarias en mm
DESCASC
Precipitaciones de 00:00 a 06:00 en mm
DESCASC
Precipitaciones de 06:00 a 12:00 en mm
DESCASC
Precipitaciones de 12:00 a 18:00 en mm
DESCASC
Precipitaciones de 18:00 a 24:00 en mm
DESCASC
21-02-2021 13.5 (11:50) 7.2 (23:10) 10.3 11.11 (17:30) 6.39 (17:30) 9.2 0 0 9.2 0
20-02-2021 18.4 (15:10) 7.8 (06:30) 13.1 11.11 (20:50) 6.67 (16:30) 0 0 0 0 0
19-02-2021 21.8 (15:00) 5.3 (07:20) 13.5 10 (16:40) 6.11 (17:20) 0.2 0 0.2 0 0
18-02-2021 18.8 (15:30) 6.1 (00:00) 12.4 5.83 (14:30) 3.61 (15:10) 0 0 0 0 0
17-02-2021 23.8 (16:40) 5.5 (00:00) 14.6 5.56 (01:30) 3.61 (00:10) 0 0 0 0 0
16-02-2021 21.7 (17:30) 6.5 (00:00) 14.1 11.39 (01:40) 6.67 (02:30) 0 0 0 0 0
15-02-2021 16.3 (15:50) 9.8 (00:00) 13 15.56 (16:20) 8.33 (13:10) 0 0 0 0 0
14-02-2021 19 (14:40) 4 (00:00) 11.5 12.78 (23:20) 6.94 (23:20) 0.2 0 0.2 0 0
13-02-2021 17.7 (16:00) 3.6 (00:00) 10.7 6.39 (15:40) 4.17 (15:40) 0.2 0.2 0 0 0
12-02-2021 17.4 (14:30) 6.4 (00:00) 11.9 -- (--) -- (--) 1 0.2 0.8 0 0
11-02-2021 17.3 (15:50) 12.2 (00:00) 14.7 4.44 (03:00) 2.78 (16:20) 0.2 0.2 0 0 0
10-02-2021 14.6 (13:20) 11 (00:00) 12.8 13.06 (03:40) 6.67 (03:40) 5 1.6 0.2 2.8 0.4
09-02-2021 16.1 (15:00) 8.2 (00:00) 12.2 15 (20:30) 7.22 (14:50) 4.2 0 0 0.8 3.4
08-02-2021 15.3 (15:30) 9.4 (00:00) 12.3 13.89 (14:50) 8.06 (14:50) 6.6 0.2 6.4 0 0
07-02-2021 12.4 (15:30) 7.8 (00:00) 10.1 12.22 (16:10) 6.67 (16:10) 0.6 0.4 0.2 0 0
06-02-2021 15.1 (14:10) 8.4 (00:00) 11.8 12.5 (13:50) 6.94 (13:50) 0.8 0.4 0 0 0.4
05-02-2021 15.6 (11:50) 9.3 (00:00) 12.5 7.78 (16:20) 4.72 (16:20) 3.8 0 0 3.6 0.2
04-02-2021 20.6 (16:00) 8.2 (00:00) 14.4 10 (11:50) 5.56 (13:10) 0 0 0 0 0
03-02-2021 17 (14:20) 5.7 (00:00) 11.3 4.17 (17:40) 3.06 (17:40) 0 0 0 0 0
02-02-2021 16.8 (15:40) 6.6 (23:59) 11.7 6.11 (13:30) 2.78 (13:40) 0 0 0 0 0
01-02-2021 17.2 (16:30) 9.8 (00:00) 13.5 9.44 (05:40) 5 (05:40) 2 2 0 0 0
31-01-2021 15.5 (15:20) 8.4 (00:00) 11.9 11.94 (14:30) 7.5 (14:20) 0.8 0 0.4 0 0.4
30-01-2021 16.4 (16:10) 9.3 (00:00) 12.8 12.78 (13:00) 8.33 (13:00) 1 0 0.8 0.2 0
29-01-2021 17.8 (15:50) 9.5 (00:00) 13.6 5.56 (18:30) 3.61 (02:20) -- 0 0.2 0 --
28-01-2021 25.7 (16:40) 7.1 (00:00) 16.4 4.44 (12:40) 2.78 (08:50) 0.2 0 0.2 0 0
27-01-2021 18.2 (14:40) 8.9 (00:00) 13.6 5.56 (15:10) 3.61 (15:50) 0.4 0.4 0 0 0
26-01-2021 16.6 (15:50) 12.1 (00:00) 14.4 9.44 (00:40) 5 (00:40) 1.2 0 0.4 0 0.8
25-01-2021 15.7 (16:00) 8.5 (00:00) 12.1 12.22 (17:30) 6.94 (17:40) 3.8 0 1 2.8 0

Gráficas

Temp. máximas Temp. mínimas Temp. medias Precipitaciones Rachas de viento máximas Velocidades máximas media en intervalos de 10 minutos

Datos horarios

Fecha y hora oficial Temperatura (ºC) Velocidad del viento (km/h) Dirección del viento Racha (km/h) Dirección de racha Precipitación (mm) Presión (hPa) Tendencia (hPa) Humedad (%)
2021-02-23 23:00:00 8.3 13 Sur 18 Sur 0 982.7 1 82
2021-02-23 22:00:00 8.4 3 Sudoeste 14 Sur 0 982.4 1.1 80
2021-02-23 21:00:00 9.8 10 Sur 23 Sur 0 982 1 75
2021-02-23 20:00:00 10.9 13 Sur 26 Sur 0 981.7 0.8 66
2021-02-23 19:00:00 12.5 13 Sur 28 Sur 0 981.3 -- 56
2021-02-23 18:00:00 14.9 14 Sur -- -- 0 981 -- 48
2021-02-23 17:00:00 16.2 14 Sur 30 Sur 0 980.9 -- 42
2021-02-23 16:00:00 16.9 16 Sur 30 Sur 0 980.9 -- 38
2021-02-23 15:00:00 17.1 15 Sur 29 Sur 0 980.9 -- 36
2021-02-23 14:00:00 17.1 10 Sudeste -- -- 0 981.2 -- 37
2021-02-23 13:00:00 16.1 8 Sudoeste 20 Sur 0 981.8 -- 40
2021-02-23 12:00:00 13.2 4 Norte 10 Nordeste 0 981.9 -- 53
2021-02-23 11:00:00 10.5 3 Norte 7 Noroeste 0 981.9 -- 70
2021-02-23 10:00:00 6.6 3 Noroeste -- -- 0 981.4 -- 91
2021-02-23 09:00:00 2.8 3 Sudeste 8 Sur 0 980.5 -- 93
2021-02-23 08:00:00 0.8 3 Sur 6 Sudeste 0 979.7 -- 92
2021-02-23 07:00:00 1.8 3 Sudeste 6 Sudeste 0 979.1 -- 92
2021-02-23 06:00:00 3.2 3 Sur 11 Sur 0 978.9 -- 92
2021-02-23 05:00:00 3.8 6 Sur 10 Sur 0 978.8 -- 92
2021-02-23 04:00:00 2.3 5 Sur 9 Sur 0 978.5 -- 91
2021-02-23 03:00:00 2.9 6 Sur 9 Sur 0 978.4 -- 91
2021-02-23 02:00:00 3.3 5 Sur 7 Sur 0 978.4 -- 90
2021-02-23 01:00:00 4 5 Sur 10 Sur 0 978.1 -- 89
2021-02-23 00:00:00 4.6 6 Sur 9 Sur 0 977.7 -- 89
2021-02-22 23:00:00 5.7 6 Sur 9 Sur 0 977.2 -- 87
2021-02-22 22:00:00 5.8 5 Sudoeste 10 Sudoeste 0 976.5 -- 87
2021-02-22 21:00:00 6.1 4 Sur 9 Sur 0 975.8 -- 84
2021-02-22 20:00:00 8 6 Sur 9 Oeste 0 975.4 -- 77
2021-02-22 19:00:00 11.9 7 Oeste -- -- 0 974.4 -- 57
2021-02-22 18:00:00 13 -- -- -- -- 0 973.6 -- 49
2021-02-22 17:00:00 13.5 18 Noroeste 31 Oeste 0 973.3 -- 50
2021-02-22 16:00:00 13.9 16 Oeste 30 Oeste 0 972.8 -- 47
2021-02-22 15:00:00 14 15 Oeste 28 Noroeste 0 972.6 -- 44
2021-02-22 14:00:00 13.6 15 Oeste 29 Oeste 0 972.8 -- 42
2021-02-22 13:00:00 13 12 Oeste 24 Oeste 0 973.1 -- 51
2021-02-22 12:00:00 11.8 6 Noroeste 22 Noroeste 0 972.9 -- 53
2021-02-22 11:00:00 10.5 10 Oeste 18 Oeste 0 972.5 -- 66
2021-02-22 10:00:00 7.3 4 Oeste 10 Oeste 0 972.3 -- 84
2021-02-22 09:00:00 4.6 4 Sur 9 Sur 0 971.5 -- 91
2021-02-22 08:00:00 3.9 3 Sudoeste 13 Sudoeste 0 970.7 -- 91
2021-02-22 07:00:00 3.8 8 Sudoeste 13 Sudoeste 0.2 970.1 1.6 90
2021-02-22 06:00:00 4.5 7 Sudoeste 13 Sudoeste 0 969.5 -- 90
2021-02-22 05:00:00 4.4 4 Oeste 9 Oeste 0 968.8 -- 89
2021-02-22 04:00:00 5.5 6 Oeste 18 Oeste 0 968.5 -- 88
2021-02-22 03:00:00 6.6 9 Oeste 19 Oeste 0 968.4 -- 86
2021-02-22 02:00:00 7.2 11 Oeste 21 Oeste 0 967.6 -- 83
2021-02-22 01:00:00 7.2 11 Oeste 19 Oeste 0 967 -- 83
2021-02-22 00:00:00 7.2 9 Sudoeste 15 Oeste 0 966 -- 84
2021-02-21 23:00:00 7.3 6 Oeste 18 Oeste 0 965.4 -- 82
2021-02-21 22:00:00 8 8 Oeste 16 Oeste 0 964.5 3 79
2021-02-21 21:00:00 8.3 3 Oeste 18 Oeste 0 963.7 -- 82
2021-02-21 20:00:00 9.2 12 Oeste 25 Oeste 0 962.8 -- 82
2021-02-21 19:00:00 9.2 13 Oeste 31 Oeste 0 961.5 -- 82
2021-02-21 18:00:00 8.7 15 Oeste 40 Oeste 0 960.3 -- 85
2021-02-21 17:00:00 9.4 19 Oeste 35 Oeste 0 958.8 -- 81
2021-02-21 16:00:00 10.1 21 Oeste 36 Oeste 0.2 957.6 -- 80
2021-02-21 15:00:00 11 8 Sudoeste 16 Sudoeste 0.4 957 -- 86
2021-02-21 14:00:00 9.9 10 Sudoeste 31 Sudoeste 3.4 956.9 -- 85
2021-02-21 13:00:00 10.3 10 Sur 36 Sudoeste 5.2 957.3 -- 85
2021-02-21 12:00:00 13.5 6 Sur 14 Sur 0 957.3 -- 61
2021-02-21 11:00:00 12.4 5 Sur 15 Sur 0 957.7 -- 61
2021-02-21 10:00:00 12.1 4 Sur 18 Sudoeste 0 957.8 -- 64
2021-02-21 09:00:00 11.1 10 Sudoeste 20 Sudoeste 0 958 -- 66
2021-02-21 08:00:00 10.7 6 Sur 16 Sudeste 0 957.7 -- 70
2021-02-21 07:00:00 11.5 8 Sur 23 Sudoeste 0 958.7 -- 65
2021-02-21 06:00:00 11.1 9 Sudoeste 22 Sudoeste 0 958.8 -- 72
2021-02-21 05:00:00 11.3 13 Sur 23 Sur 0 959.7 -- 73
2021-02-21 04:00:00 11.2 13 Sur 25 Sudoeste 0 959.8 -- 79
2021-02-21 03:00:00 11.2 12 Sudoeste 24 Sur 0 960.4 -- 79
2021-02-21 02:00:00 11.1 15 Sudoeste 34 Sur 0 960.8 -- 79
2021-02-21 01:00:00 11.6 13 Sur 36 Sudeste 0 961.3 -- 75
2021-02-21 00:00:00 11.6 17 Sur 37 Sur 0 961.8 -- 74
2021-02-20 23:00:00 11.4 18 Sur 33 Sudeste 0 962 -- 76
2021-02-20 22:00:00 11.7 23 Sur 40 Sur 0 962.4 -- 74
2021-02-20 21:00:00 11.6 22 Sur 40 Sur 0 962.6 -- 75
2021-02-20 20:00:00 12.1 8 Sudoeste 19 Sur 0 962.9 -- 68
2021-02-20 19:00:00 13.5 11 Sur 29 Sur 0 963.2 -- 61
2021-02-20 18:00:00 15 13 Sur 38 Sur 0 963.4 -- 53
2021-02-20 17:00:00 17.1 22 Sur 38 Sur 0 963.4 -- 47
2021-02-20 16:00:00 17.7 22 Sur 39 Sur 0 964 -- 48
2021-02-20 15:00:00 18.1 19 Sur 38 Sur 0 964.6 -- 47
2021-02-20 14:00:00 16.3 22 Sur 39 Sur 0 965.7 -- 56
2021-02-20 13:00:00 17.6 21 Sur 36 Sudeste 0 966.6 -- 46
2021-02-20 12:00:00 16.4 15 Sur 31 Sudeste 0 967.5 -- 49
2021-02-20 11:00:00 14.3 20 Sur 40 Sur 0 968 -- 59
2021-02-20 10:00:00 12.4 20 Sur 36 Sur 0 968.2 -- 69
2021-02-20 09:00:00 10.1 14 Sudoeste 28 Sur 0 968 0.6 72
2021-02-20 08:00:00 9.8 18 Sudoeste 29 Sudoeste 0 967.7 -- 58
2021-02-20 07:00:00 8.8 11 Sur 21 Sur 0 966.9 -- 61
2021-02-20 06:00:00 8.7 10 Sudoeste 20 Sur 0 967.4 -- 70
2021-02-20 05:00:00 9.3 10 Sur 21 Sudoeste 0 967.2 -- 69
2021-02-20 04:00:00 8.1 8 Sudoeste 19 Sudoeste 0 967.5 -1.1 67
2021-02-20 03:00:00 9.9 12 Sur 33 Sur 0 967.7 -- 63
2021-02-20 02:00:00 11.8 19 Sur 31 Sur 0 968.2 -- 63
2021-02-20 01:00:00 11.6 17 Sur 31 Sudeste 0 968.6 -- 64
2021-02-20 00:00:00 10.5 9 Sur 20 Sudoeste 0 969.3 -- 67
2021-02-19 23:00:00 10.9 10 Sur 22 Sur 0 969.4 -0.4 62
2021-02-19 22:00:00 12.5 13 Sur 32 Sur 0 969.2 -- 55
2021-02-19 21:00:00 11.8 9 Sur 15 Sur 0 969.2 -- 58
2021-02-19 20:00:00 12.5 5 Sur 15 Sur 0 969.8 -- 61
2021-02-19 19:00:00 16 9 Sur 26 Sur 0 969.2 -- 43
2021-02-19 18:00:00 18.7 -- -- -- -- 0 969 -- 36
2021-02-19 17:00:00 20.2 20 Sur -- -- 0 969 -0.9 32
2021-02-19 16:00:00 21.2 16 Sur 33 Sur 0 969.2 -- 28
2021-02-19 15:00:00 21.8 15 Sur 34 Sur 0 969.4 -- 25
2021-02-19 14:00:00 21 19 Sur 34 Sur 0 969.9 -- 28
2021-02-19 13:00:00 20.5 16 Sur 32 Sur 0 970.5 -- 32
2021-02-19 12:00:00 18.2 11 Sur 23 Sur 0 971 -- 43
2021-02-19 11:00:00 15.1 6 Sur 14 Sur 0 971.4 -- 61
2021-02-19 10:00:00 10.1 2 Sudeste -- -- 0 971.4 -- 87
2021-02-19 09:00:00 5.8 0 Calma 9 Sur 0.2 971.2 -- 92
2021-02-19 08:00:00 5.4 6 Sur 12 Sudeste 0 970.8 -- 92
2021-02-19 07:00:00 5.5 3 Sur 13 Sur 0 970.7 -- 92
2021-02-19 06:00:00 5.7 9 Sur 14 Sur 0 970.6 -- 92
2021-02-19 05:00:00 6.5 11 Sur 14 Sur 0 970.4 -- 92
2021-02-19 04:00:00 7 5 Sur 15 Sur 0 970.8 -- 92
2021-02-19 03:00:00 7.6 10 Sur 14 Sur 0 971.1 -- 92
2021-02-19 02:00:00 6.5 6 Sur 9 Sur 0 971.1 -- 91
2021-02-19 01:00:00 7.4 3 Sur 10 Sur 0 971.4 -- 91
2021-02-19 00:00:00 8.4 6 Sur 10 Sur 0 971.7 -- 92
2021-02-18 23:00:00 7.3 6 Sur 10 Sur 0 972 -- 89
2021-02-18 22:00:00 8 7 Sur 8 Sur 0 971.9 -- 88
2021-02-18 21:00:00 9.1 6 Sur 9 Sur 0 971.8 -- 87
2021-02-18 20:00:00 11 7 Sur 8 Sur 0 971.4 -- 80
2021-02-18 19:00:00 14.9 4 Norte 13 Norte 0 970.9 -- 65
2021-02-18 18:00:00 16.7 7 Norte 12 Norte 0 970.4 -- 60
2021-02-18 17:00:00 17.6 7 Norte 14 Norte 0 970.4 -- 57
2021-02-18 16:00:00 17.9 8 Norte 19 Oeste 0 970.3 -- 57
2021-02-18 15:00:00 18.5 12 Oeste 21 Oeste 0 970.6 -- 54
2021-02-18 14:00:00 17.5 8 Noroeste 20 Oeste 0 970.8 -- 58
2021-02-18 13:00:00 17.5 6 Norte 14 Nordeste 0 971.4 -- 56
2021-02-18 12:00:00 16.8 9 Norte 13 Norte 0 971.4 -- 55
2021-02-18 11:00:00 14.9 3 Sur 11 Sur 0 971.2 -- 56
2021-02-18 10:00:00 10 5 Sur 11 Sur 0 971 -- 73
2021-02-18 09:00:00 7 6 Sur 16 Sur 0 970.6 -- 84
2021-02-18 08:00:00 6.6 11 Sur 17 Sur 0 970.2 -- 84
2021-02-18 07:00:00 6.3 8 Sur 15 Sur 0 970.1 -- 84
2021-02-18 06:00:00 7.2 10 Sur 14 Sur 0 970 -- 81
2021-02-18 05:00:00 7.2 10 Sur 14 Sur 0 970 -- 80
2021-02-18 04:00:00 8.2 11 Sur 16 Sur 0 970.1 -- 73
2021-02-18 03:00:00 9.4 11 Sur 14 Sur 0 970.2 -- 67
2021-02-18 02:00:00 9.1 12 Sur 18 Sur 0 970.3 -- 67
2021-02-18 01:00:00 9.3 11 Sur 16 Sur 0 970.6 -- 74
2021-02-18 00:00:00 10.3 12 Sur 17 Sur 0 971 -- 69
2021-02-17 23:00:00 9 9 Sur 12 Sur 0 971.2 -- 71
2021-02-17 22:00:00 10.3 3 Sudoeste 10 Sur 0 971.1 -- 67
2021-02-17 21:00:00 12.6 2 Oeste 13 Sur 0 971.2 -- 64
2021-02-17 20:00:00 14.5 5 Sur 14 Sudoeste 0 970.9 -- 59
2021-02-17 19:00:00 17.9 8 Sur 13 Sudoeste 0 970.7 -- 49
2021-02-17 18:00:00 21.9 8 Sur 15 Sur 0 970.9 -- 37
2021-02-17 17:00:00 23.5 7 Sur 12 Sur 0 971 -- 29
2021-02-17 16:00:00 23.5 6 Sudoeste 16 Sudoeste 0 971.3 -- 26
2021-02-17 15:00:00 22.9 8 Sur 17 Sudoeste 0 971.9 -- 30
2021-02-17 14:00:00 21.8 10 Sudoeste 19 Sudoeste 0 972.8 -- 33
2021-02-17 13:00:00 19.9 10 Sur 19 Sur 0 973.7 -- 40
2021-02-17 12:00:00 17.4 8 Sur 19 Sur 0 974.4 -- 53
2021-02-17 11:00:00 13.7 9 Sur 15 Sur 0 974.6 -- 67
2021-02-17 10:00:00 8.9 8 Sur 18 Sur 0 974.9 -- 91
2021-02-17 09:00:00 6.3 11 Sur 15 Sur 0 974.8 -- 92
2021-02-17 08:00:00 6.2 6 Sur 14 Sur 0 974.7 -- 91
2021-02-17 07:00:00 6.7 12 Sur 15 Sur 0 974.8 -- 92
2021-02-17 06:00:00 6.4 8 Sur 12 Sur 0 974.9 -- 91
2021-02-17 05:00:00 6.3 5 Sur 11 Sur 0 974.9 -- 90
2021-02-17 04:00:00 6.8 6 Sur 11 Sur 0 975.3 -- 89
2021-02-17 03:00:00 7.4 4 Sur 14 Sur 0 975.5 -- 88
2021-02-17 02:00:00 8.7 9 Sur 20 Sudeste 0 975.8 -- 88
2021-02-17 01:00:00 9 10 Sur 18 Sur 0 976.2 -- 85
2021-02-17 00:00:00 9.4 12 Sur 20 Sur 0 976.6 -- 85
2021-02-16 23:00:00 9.9 9 Sur 15 Sur 0 976.7 -- 82
2021-02-16 22:00:00 9.5 10 Sur 11 Sur 0 976.8 -- 83
2021-02-16 21:00:00 10.4 7 Sur 12 Sur 0 976.6 -- 75
2021-02-16 20:00:00 12.5 4 Sudeste 10 Sur 0 976.4 -- 67
2021-02-16 19:00:00 16.1 7 Sur 8 Sur 0 976.1 -- 54
2021-02-16 18:00:00 20.9 5 Sur 8 Sur 0 976.1 -- 35
2021-02-16 17:00:00 21.4 4 Sur 12 Sur 0 976.4 -- 31
2021-02-16 16:00:00 20.7 8 Sur 17 Sur 0 976.9 -- 35
2021-02-16 15:00:00 19.5 12 Sur 22 Sudoeste 0 977.5 -- 39
2021-02-16 14:00:00 18.3 12 Sur 25 Sur 0 978.3 -- 46
2021-02-16 13:00:00 16.5 12 Sur 28 Sur 0 979.2 -- 53
2021-02-16 12:00:00 14.7 15 Sur 32 Sur 0 979.7 -- 58
2021-02-16 11:00:00 12.9 21 Sur 35 Sur 0 979.6 -- 63
2021-02-16 10:00:00 10.4 13 Sur 31 Sur 0 979.6 -- 75
2021-02-16 09:00:00 7.8 14 Sur 27 Sur 0 978.8 -- 86
2021-02-16 08:00:00 6.6 13 Sur 24 Sur 0 978 -- 87
2021-02-16 07:00:00 6.8 14 Sur 28 Sur 0 978 -- 85
2021-02-16 06:00:00 7.6 15 Sur 31 Sur 0 978.3 -- 80
2021-02-16 05:00:00 8.2 16 Sur 31 Sur 0 978.7 -- 78
2021-02-16 04:00:00 9.2 19 Sur 40 Sur 0 979 -- 75
2021-02-16 03:00:00 9.6 22 Sur 39 Sur 0 979.3 -- 71
2021-02-16 02:00:00 10 22 Sur 41 Sur 0 979.6 -- 69
2021-02-16 01:00:00 10 19 Sur 36 Sur 0 979.9 -- 71
2021-02-16 00:00:00 10.2 19 Sur 36 Sur 0 980 -- 71
2021-02-15 23:00:00 10.2 18 Sur 39 Sur 0 980 -- 69
2021-02-15 22:00:00 10.3 19 Sur 39 Sur 0 979.6 -- 69
2021-02-15 21:00:00 10.7 20 Sur 42 Sur 0 979.7 -- 66
2021-02-15 20:00:00 11.2 17 Sur 37 Sur 0 979.8 -- 63
2021-02-15 19:00:00 12.2 21 Sur 41 Sur 0 979.5 -- 58
2021-02-15 18:00:00 14 22 Sur 45 Sur 0 979.5 -- 51
2021-02-15 17:00:00 15.1 27 Sur 56 Sur 0 979.5 -- 51
2021-02-15 16:00:00 16 26 Sur 45 Sur 0 979.8 -- 47
2021-02-15 15:00:00 16.1 24 Sur 48 Sudeste 0 980.1 -- 49
2021-02-15 14:00:00 15.7 27 Sur 49 Sur 0 980.7 -- 52
2021-02-15 13:00:00 15.3 26 Sur 46 Sur 0 981.5 -- 56
2021-02-15 12:00:00 14.5 25 Sur 48 Sudeste 0 981.7 -- 59
2021-02-15 11:00:00 13.3 27 Sur 53 Sur 0 981.6 -- 62
2021-02-15 10:00:00 11.6 27 Sur 49 Sur 0 981.3 -- 69
2021-02-15 09:00:00 10.4 23 Sur 45 Sur 0 980.6 -- 77
2021-02-15 08:00:00 9.8 24 Sur 44 Sur 0 980 -- 79
2021-02-15 07:00:00 10 21 Sur 40 Sur 0 979.8 -- 77
2021-02-15 06:00:00 10 21 Sur 46 Sur 0 979.8 -- 77
2021-02-15 05:00:00 9.9 19 Sur 44 Sur 0 979.8 -- 79
2021-02-15 04:00:00 10 22 Sur 43 Sur 0 980 -- 79
2021-02-15 03:00:00 10.4 23 Sur 47 Sur 0 980.3 -- 73
2021-02-15 02:00:00 10.6 20 Sur 43 Sur 0 980.3 -- 68
2021-02-15 01:00:00 11 23 Sur 43 Sur 0 980.3 -- 62
2021-02-15 00:00:00 11.1 22 Sur 46 Sur 0 980.6 -- 64
2021-02-14 23:00:00 11.4 23 Sur 41 Sur 0 980.5 -- 65
2021-02-14 22:00:00 11.3 20 Sur 44 Sur 0 980.1 -- 66
2021-02-14 21:00:00 11.7 19 Sur 34 Sur 0 979.8 -- 72
2021-02-14 20:00:00 12.3 15 Sur 30 Sur 0 979.4 -- 70
2021-02-14 19:00:00 13.5 12 Sur 32 Sur 0 979.1 0.6 58
2021-02-14 18:00:00 16.3 16 Sur 33 Sur 0 978.8 0.5 44
2021-02-14 17:00:00 17.7 19 Sur 35 Sudeste 0 978.7 -- 39
2021-02-14 16:00:00 18.4 21 Sur 36 Sur 0 978.5 -- 35
2021-02-14 15:00:00 18.8 19 Sur 39 Sur 0 978.3 -- 33
2021-02-14 14:00:00 18.7 22 Sur 39 Sudeste 0 978.4 -- 35
2021-02-14 13:00:00 18.3 19 Sur 32 Sur 0 978.5 -- 39
2021-02-14 12:00:00 16.7 12 Sur 24 Sur 0 978.9 -- 44
2021-02-14 11:00:00 14.1 8 Sur 14 Sur 0 978.7 -- 52
2021-02-14 10:00:00 9.3 3 Sudoeste 13 Sur 0.2 978.2 -- 71
2021-02-14 09:00:00 5.6 9 Sur 18 Sur 0 977.6 -- 89
2021-02-14 08:00:00 4.6 3 Oeste 14 Sur 0 976.8 -- 88
2021-02-14 07:00:00 4.7 5 Sur 12 Sur 0 976.5 -- 91
2021-02-14 06:00:00 5.2 10 Sur 13 Sur 0 976.4 -- 91
2021-02-14 05:00:00 5 8 Sur 12 Sur 0 976.4 -- 91
2021-02-14 04:00:00 5 4 Sur 8 Sur 0 976.8 -- 88
2021-02-14 03:00:00 6.5 8 Sur 13 Sur 0 977.2 -- 88
2021-02-14 02:00:00 6.7 10 Sur 14 Sur 0 977.4 -- 89
2021-02-14 01:00:00 6.5 11 Sur 13 Sur 0 977.4 -- 91
2021-02-14 00:00:00 5.9 9 Sur 10 Sur 0 977.6 -- 89
2021-02-13 23:00:00 6 6 Sur 10 Sur 0 977.9 -- 88
2021-02-13 22:00:00 6.5 5 Sur 9 Sur 0 977.5 -- 86
2021-02-13 21:00:00 7.4 8 Sur 10 Sur 0 977.1 -- 83
2021-02-13 20:00:00 9.1 5 Sur 9 Sur 0 976.7 -- 78
2021-02-13 19:00:00 14.7 2 Oeste 12 Norte 0 976.3 -- 56
2021-02-13 18:00:00 16.9 8 Norte 17 Norte 0 976.2 -- 37
2021-02-13 17:00:00 17.5 8 Norte 22 Norte 0 976.2 -- 40
2021-02-13 16:00:00 17.5 13 Norte 23 Norte 0 976.6 -- 49
2021-02-13 15:00:00 16.5 11 Norte 18 Noroeste 0 976.7 -- 50
2021-02-13 14:00:00 17 6 Norte 13 Nordeste 0 977 -- 49
2021-02-13 13:00:00 16.5 6 Norte 10 Este 0 977.6 -- 54
2021-02-13 08:00:00 3.6 5 Sur 8 Sur 0 977.2 0.7 92
2021-02-13 07:00:00 3.9 3 Sudoeste 9 Sur 0 976.9 0.4 92
2021-02-13 06:00:00 4.4 8 Sur 9 Sur 0 976.5 0.1 92
2021-02-13 05:00:00 4.3 5 Sur 8 Sur 0 976.5 0 91
2021-02-13 04:00:00 4.7 5 Sur 9 Sur 0.2 976.5 -0.1 91
2021-02-13 03:00:00 5 8 Sur 10 Sur 0 976.4 -0.1 91
2021-02-13 02:00:00 5.3 5 Sur 8 Sur 0 976.5 0 91
2021-02-13 01:00:00 5.8 4 Sur 9 Sur 0 976.6 0.2 90
2021-02-13 00:00:00 6.4 5 Sur 9 Sur 0 976.5 0.6 90
2021-02-12 23:00:00 7 4 Sur 5 Sur 0 976.5 1 88
2021-02-12 22:00:00 7.9 5 Sur 8 Sur 0 976.4 1.4 86
2021-02-12 21:00:00 9.1 4 Sur 11 Noroeste 0 975.9 1.4 81
2021-02-12 20:00:00 11.5 7 Noroeste 11 Noroeste 0 975.5 1.2 71
2021-02-12 19:00:00 14.1 8 Noroeste 19 Noroeste 0 975 0.6 57
2021-02-12 18:00:00 15.4 16 Noroeste -- -- 0 974.5 -0.2 51
2021-02-12 17:00:00 16.7 14 Noroeste -- -- 0 974.3 -0.5 52
2021-02-12 16:00:00 16.7 14 Noroeste -- -- 0 974.4 -0.9 52
2021-02-12 15:00:00 16.6 16 Noroeste 27 Norte 0 974.7 -0.2 49
2021-02-12 14:00:00 16.4 15 Noroeste 30 Noroeste 0 974.8 0.2 49
2021-02-12 13:00:00 16.4 18 Noroeste 31 Noroeste 0 975.3 1.2 59
2021-02-12 12:00:00 16 18 Noroeste 28 Noroeste 0 974.9 1 70
2021-02-12 11:00:00 14.1 14 Oeste 25 Oeste 0 974.6 1.3 89
2021-02-12 10:00:00 13 17 Oeste 28 Oeste 0.2 974.1 1 92
2021-02-12 09:00:00 12.7 10 Oeste 21 Oeste 0.2 973.9 -- 92
2021-02-12 08:00:00 12.2 4 Oeste 12 Sudoeste 0.4 973.3 -- 92
2021-02-12 07:00:00 12.3 3 Sudoeste 11 Oeste 0 973.1 -- 91
2021-02-12 06:00:00 12.2 6 Oeste 15 Oeste 0 973 -- 92
2021-02-12 05:00:00 12.3 11 Oeste 18 Oeste 0.2 973.1 -- 92
2021-02-12 04:00:00 12.2 4 Oeste 11 Oeste 0 973.2 -- 91
2021-02-12 03:00:00 11.9 6 Oeste 13 Oeste 0 973.2 -- 90
2021-02-12 02:00:00 12 4 Oeste 9 Oeste 0 972.9 -- 90
2021-02-12 01:00:00 12.8 6 Sudoeste 10 Sudoeste 0 972.5 -- 91
2021-02-12 00:00:00 12.9 5 Oeste 9 Oeste 0 972.5 -- 92
2021-02-11 23:00:00 12.5 4 Sur 6 Sur 0 972.6 -- 91
2021-02-11 22:00:00 12.7 3 Sur 4 Sur 0 972.8 -- 90
2021-02-11 21:00:00 13.2 2 Sur 10 Noroeste 0 972.6 -- 88
2021-02-11 20:00:00 14 6 Norte 9 Norte 0 972.5 -- 86
2021-02-11 19:00:00 14.5 6 Norte 12 Nordeste 0 972.1 -- 81
2021-02-11 18:00:00 15.3 6 Norte 12 Nordeste 0 971.8 -- 77
2021-02-11 17:00:00 15.7 7 Norte 16 Noroeste 0 971.6 -- 77
2021-02-11 16:00:00 16.7 5 Norte 13 Noroeste 0 971.5 -- 69
2021-02-11 15:00:00 16.9 6 Oeste 11 Noroeste 0 971.6 -- 69
2021-02-11 14:00:00 16.1 4 Oeste 12 Noroeste 0 972.4 -- 70
2021-02-11 13:00:00 15.5 7 Noroeste 11 Noroeste 0 973.1 -- 76
2021-02-11 12:00:00 14.5 3 Sudeste 8 Noroeste 0 973.3 -- 82
2021-02-11 11:00:00 13.7 4 Noroeste 8 Noroeste 0 973.3 -- 88
2021-02-11 10:00:00 13.1 3 Sur 6 Sur 0 973.1 -- 92
2021-02-11 09:00:00 12.3 3 Este 4 Este 0 972.6 -- 92
2021-02-11 08:00:00 12.4 0 Calma 7 Oeste 0 972.4 -- 92
2021-02-11 07:00:00 12.5 2 Noroeste 8 Noroeste 0 972.3 -- 92
2021-02-11 06:00:00 12.6 5 Oeste 10 Oeste 0 972.2 -- 92
2021-02-11 05:00:00 12.7 4 Noroeste 12 Noroeste 0.2 972.2 -- 92
2021-02-11 04:00:00 12.7 3 Oeste 12 Oeste 0 972.3 -- 92
2021-02-11 03:00:00 12.8 9 Oeste 16 Oeste 0 972.2 -- 92
2021-02-11 02:00:00 12.7 3 Oeste 12 Oeste 0 972.5 -- 92
2021-02-11 01:00:00 12.8 5 Oeste 12 Oeste 0 972.3 -- 91
2021-02-11 00:00:00 12.8 9 Sudoeste 17 Sudoeste 0.2 972.1 -- 91
2021-02-10 23:00:00 13.1 11 Sudoeste 21 Sudoeste 0 971.8 -- 88
2021-02-10 22:00:00 12.8 8 Sudoeste 30 Oeste 0 971.1 -- 90
2021-02-10 21:00:00 12.8 15 Oeste 36 Oeste 0 970.1 -- 90
2021-02-10 20:00:00 13.2 16 Oeste 41 Oeste 0 969.9 -- 90
2021-02-10 19:00:00 13.3 20 Oeste 35 Oeste 0.2 969.3 -- 90
2021-02-10 18:00:00 13.6 19 Oeste 41 Oeste 0.4 968.7 -- 90
2021-02-10 17:00:00 14 16 Oeste 36 Oeste 1.2 968.3 -- 91
2021-02-10 16:00:00 13.9 23 Oeste 43 Oeste 1 968.1 -- 90
2021-02-10 15:00:00 14.5 17 Oeste 36 Oeste 0 967.9 -- 89
2021-02-10 14:00:00 14.3 20 Oeste 41 Oeste 0.2 968 -- 89
2021-02-10 13:00:00 14.4 21 Oeste 43 Oeste 0 968 -- 86
2021-02-10 12:00:00 14.3 19 Oeste 46 Oeste 0.2 967.5 -- 84
2021-02-10 11:00:00 13.4 15 Oeste 41 Oeste 0 966.8 -- 84
2021-02-10 10:00:00 12.8 20 Oeste 44 Oeste 0 966 -- 82
2021-02-10 09:00:00 12.5 17 Oeste 42 Oeste 0 965.4 -- 87
2021-02-10 08:00:00 12.6 16 Oeste 34 Oeste 0 964.8 -- 87
2021-02-10 07:00:00 12.2 19 Oeste 38 Sudoeste 0 964.2 -- 81
2021-02-10 06:00:00 11.6 21 Oeste 36 Oeste 0 964.3 -- 83
2021-02-10 05:00:00 11.2 15 Oeste 37 Sudoeste 0.6 964.2 -- 86
2021-02-10 04:00:00 11.1 22 Oeste 47 Oeste 0.8 964.6 -- 89
2021-02-10 03:00:00 11.6 17 Oeste 37 Oeste 0 964.6 -- 84
2021-02-10 02:00:00 12 20 Oeste 40 Oeste 0 964.5 -- 83
2021-02-10 01:00:00 11.6 15 Oeste 36 Oeste 0.2 964.2 -- 88
2021-02-10 00:00:00 11.8 22 Oeste 42 Oeste 0.2 964.1 -- 86
2021-02-09 23:00:00 11.5 26 Oeste 50 Oeste 1.8 964.2 -- 89
2021-02-09 22:00:00 12.3 15 Sudoeste 39 Oeste 0 963.1 -- 85
2021-02-09 21:00:00 12.8 26 Sudoeste 54 Oeste 0 962.8 -- 75
2021-02-09 20:00:00 12.6 19 Sudoeste 45 Oeste 0 962.8 -- 84
2021-02-09 19:00:00 11.6 23 Sudoeste 49 Sudoeste 1.4 962.5 -- 86
2021-02-09 18:00:00 13.1 19 Sudoeste 47 Oeste 0 962.1 -- 77
2021-02-09 17:00:00 12.8 22 Sudoeste 50 Sudoeste 0.8 961.9 -- 84
2021-02-09 16:00:00 14.1 25 Sudoeste 50 Sudoeste 0 962 -- 70
2021-02-09 15:00:00 16 26 Sudoeste 52 Sudoeste 0 961.9 -- 58
2021-02-09 14:00:00 15.6 24 Sudoeste 45 Oeste 0 962.7 -- 60
2021-02-09 13:00:00 14.3 15 Sudoeste 40 Sudoeste 0 963.8 -- 66
2021-02-09 12:00:00 13.7 15 Sudoeste 27 Sudoeste 0 964.5 -- 63
2021-02-09 11:00:00 13.2 13 Sudoeste 28 Sudoeste 0 964.5 -- 67
2021-02-09 10:00:00 11.3 10 Sur 22 Sudeste 0 964.3 -- 76
2021-02-09 09:00:00 10 6 Sur 17 Sudoeste 0 964.3 -- 79
2021-02-09 08:00:00 8.8 8 Sur 18 Sur 0 964.4 -- 81
2021-02-09 07:00:00 9 7 Sur 14 Sur 0 964.7 -- 84
2021-02-09 06:00:00 9.7 8 Sur 12 Sur 0 964.8 -- 86
2021-02-09 05:00:00 10.3 6 Sudoeste 14 Sudoeste 0 964.7 -- 83
2021-02-09 04:00:00 10.3 6 Sudoeste 14 Oeste 0 965.1 -- 81
2021-02-09 03:00:00 10.5 7 Sudoeste 15 Sudoeste 0 965.5 -- 80
2021-02-09 02:00:00 10.6 4 Sudoeste 14 Oeste 0 965.7 -- 82
2021-02-09 01:00:00 10.8 5 Sudoeste 19 Sudoeste 0 966 -- 81
2021-02-09 00:00:00 10.5 6 Sudoeste 18 Sudoeste 0 966 -- 81
2021-02-08 23:00:00 11 11 Sudoeste 20 Sudoeste 0 966 -- 78
2021-02-08 22:00:00 11.4 7 Sudoeste 16 Sudoeste 0 965.8 -- 79
2021-02-08 21:00:00 11.3 5 Sudoeste 27 Oeste 0 965.2 -- 77
2021-02-08 20:00:00 11.8 12 Oeste 35 Oeste 0 964.8 -- 72
2021-02-08 19:00:00 12.2 12 Oeste 33 Oeste 0 963.7 -- 69
2021-02-08 18:00:00 13 13 Oeste 37 Oeste 0 963 -- 65
2021-02-08 17:00:00 14.5 14 Oeste 40 Oeste 0 962.3 -- 59
2021-02-08 16:00:00 14.1 25 Oeste 47 Oeste 0 961.9 -- 58
2021-02-08 15:00:00 14.8 28 Oeste 50 Noroeste 0 961.6 -- 51
2021-02-08 14:00:00 14.2 23 Oeste 45 Oeste 0 962.2 -- 59
2021-02-08 13:00:00 13.1 24 Oeste 44 Noroeste 0 963 -- 64
2021-02-08 12:00:00 11.9 24 Oeste 43 Oeste 0 963.2 -- 70
2021-02-08 11:00:00 11 17 Oeste 34 Oeste 0 962.8 -- 78
2021-02-08 10:00:00 10.1 10 Oeste 24 Oeste 0 962.6 -- 85
2021-02-08 09:00:00 9.5 14 Oeste 37 Oeste 0 961.7 -- 89
2021-02-08 08:00:00 9.5 21 Oeste 46 Oeste 3.4 960.5 -- 89
2021-02-08 07:00:00 10.1 18 Sur 32 Sur 3 958.9 -- 90
2021-02-08 06:00:00 10.3 15 Sur 33 Sur 0.2 959.6 -- 84
2021-02-08 05:00:00 11.2 17 Sur 30 Sur 0 960.3 -- 77
2021-02-08 04:00:00 10.3 12 Sur 21 Sur 0 961.5 -- 82
2021-02-08 03:00:00 9.9 10 Sur 23 Sur 0 962.3 -- 83
2021-02-08 02:00:00 9.4 10 Sur 23 Sur 0 963.5 -- 87
2021-02-08 01:00:00 9.6 10 Sudoeste 21 Sudoeste 0 964.3 -- 85
2021-02-08 00:00:00 9.5 13 Sudoeste 27 Oeste 0 965 -- 84
2021-02-07 23:00:00 9 18 Oeste 32 Oeste 0 965.3 -- 84
2021-02-07 22:00:00 9.2 8 Sudoeste 19 Sudoeste 0 965.5 -- 75
2021-02-07 21:00:00 8.8 12 Oeste 23 Sudoeste 0 965.9 -- 73
2021-02-07 20:00:00 8.8 13 Sudoeste 28 Sudoeste 0 965.4 -- 73
2021-02-07 19:00:00 8.9 13 Oeste 31 Oeste 0 965.3 -- 70
2021-02-07 18:00:00 9.5 16 Oeste 38 Oeste 0 964.9 -- 65
2021-02-07 17:00:00 10.2 20 Oeste 44 Oeste 0 964.6 -- 63
2021-02-07 16:00:00 11.1 23 Oeste 44 Noroeste 0 963.9 -- 62
2021-02-07 15:00:00 11.5 18 Oeste 32 Noroeste 0 963.6 -- 65
2021-02-07 14:00:00 10.7 16 Oeste 29 Oeste 0 963.8 -- 76
2021-02-07 13:00:00 9.5 14 Oeste 28 Oeste 0 963.9 -- 89
2021-02-07 12:00:00 9.8 13 Oeste 27 Oeste 0 963.7 -- 88
2021-02-07 11:00:00 9.4 17 Oeste 26 Oeste 0 963.1 -- 92
2021-02-07 10:00:00 8.5 13 Oeste 26 Oeste 0 962.6 -- 93
2021-02-07 09:00:00 8.2 13 Oeste 22 Oeste 0 961.8 -- 92
2021-02-07 08:00:00 8.2 11 Oeste 22 Oeste 0 960.9 -- 92
2021-02-07 07:00:00 8.2 7 Oeste 15 Oeste 0.2 960.5 -- 91
2021-02-07 06:00:00 8.1 3 Oeste 11 Oeste 0.2 960.2 -- 90
2021-02-07 05:00:00 7.9 2 Noroeste 14 Sudoeste 0 960 -- 90
2021-02-07 04:00:00 7.9 7 Sudoeste 11 Sudoeste 0.2 960 -- 89
2021-02-07 03:00:00 8 5 Oeste 16 Sudoeste 0 960.1 -- 89
2021-02-07 02:00:00 8.1 9 Sudoeste 19 Sudoeste 0 959.9 -- 85
2021-02-07 01:00:00 8.5 7 Sur 18 Oeste 0 959.8 -- 87
2021-02-07 00:00:00 8.4 7 Sudoeste 20 Sudoeste 0 959.8 -- 87
2021-02-06 23:00:00 8.8 7 Sudoeste 14 Sudoeste 0 959.5 -- 86
2021-02-06 22:00:00 9.3 7 Oeste 18 Oeste 0.2 959.1 -- 86
2021-02-06 21:00:00 9.9 10 Sudoeste 20 Oeste 0.2 958.6 -- 82
2021-02-06 20:00:00 10 10 Sudoeste 24 Sudoeste 0 958.1 -- 79
2021-02-06 19:00:00 10.8 9 Sudoeste 19 Oeste 0 957.4 -- 74
2021-02-06 18:00:00 11.4 12 Sudoeste 34 Oeste 0 956.8 -- 70
2021-02-06 17:00:00 11.7 14 Oeste 34 Oeste 0 956.6 -- 76
2021-02-06 16:00:00 13.2 13 Oeste 36 Oeste 0 956.2 -- 68
2021-02-06 15:00:00 13.1 21 Sudoeste 40 Sudoeste 0 956 -- 62
2021-02-06 14:00:00 14.7 23 Sudoeste 45 Sudoeste 0 956 -- 57
2021-02-06 13:00:00 13.6 14 Sudoeste 34 Sudoeste 0 957 -- 64
2021-02-06 12:00:00 12.1 16 Sudoeste 29 Sur 0 957.2 -- 70
2021-02-06 11:00:00 11.3 11 Sudoeste 20 Sudoeste 0 957 -- 72
2021-02-06 10:00:00 10.9 12 Sudoeste 26 Sudoeste 0 956.7 -- 71
2021-02-06 09:00:00 9.6 14 Sudoeste 24 Sudoeste 0 956.1 -- 75
2021-02-06 08:00:00 9.2 12 Sudoeste 23 Sur 0 955.8 -- 78
2021-02-06 07:00:00 8.9 12 Sudoeste 18 Sudoeste 0 955.6 -- 86
2021-02-06 06:00:00 9.1 8 Sudoeste 27 Sudoeste 0.4 955.5 -- 88
2021-02-06 05:00:00 9.9 13 Sudoeste 27 Sur 0 955.2 -- 87
2021-02-06 04:00:00 10 7 Sur 25 Sur 0 955 -- 83
2021-02-06 03:00:00 10.4 14 Sur 27 Sur 0 954.9 -- 79
2021-02-06 02:00:00 10.4 12 Sur 24 Sur 0 954.9 -- 77
2021-02-06 01:00:00 10.1 10 Sudeste 21 Sudeste 0 955.2 -- 78
2021-02-06 00:00:00 9.5 7 Sur 17 Sudeste 0 955.6 -- 81
2021-02-05 23:00:00 10.1 7 Sur 26 Sudoeste 0 955.6 -- 76
2021-02-05 22:00:00 9.5 6 Sur 17 Sudeste 0 955.4 -- 83
2021-02-05 21:00:00 9.8 6 Sur 12 Sur 0 955.4 -- 87
2021-02-05 20:00:00 10.8 3 Noroeste 8 Nordeste 0 955.4 -- 90
2021-02-05 19:00:00 11.1 3 Nordeste 8 Nordeste 0.2 954.9 -- 89
2021-02-05 18:00:00 11.6 2 Noroeste 18 Oeste 2.4 954.5 -- 86
2021-02-05 17:00:00 11.6 10 Sudoeste 28 Oeste 1.2 955 -- 81
2021-02-05 16:00:00 14.1 7 Nordeste 14 Norte 0 954.3 -- 76
2021-02-05 15:00:00 14.7 7 Norte 14 Norte 0 954.3 -- 73
2021-02-05 14:00:00 14.9 8 Norte 13 Norte 0 955 -- 71
2021-02-05 13:00:00 14.6 8 Nordeste 18 Noroeste 0 956.1 -- 72
2021-02-05 12:00:00 15.4 10 Oeste 19 Noroeste 0 956.2 -- 66
2021-02-05 11:00:00 14.2 12 Noroeste 20 Oeste 0 956.2 -- 69
2021-02-05 10:00:00 12.3 12 Noroeste 19 Oeste 0 956 -- 78
2021-02-05 09:00:00 9.5 6 Oeste 12 Oeste 0 955.3 -- 81
2021-02-05 08:00:00 9.9 9 Oeste 14 Sur 0 954.9 -- 77
2021-02-05 07:00:00 10.4 6 Sur 17 Sur 0 954.5 -- 74
2021-02-05 06:00:00 11.7 12 Sur 21 Sur 0 954.6 -- 70
2021-02-05 05:00:00 10.1 8 Sur 15 Sudoeste 0 955 -- 83
2021-02-05 04:00:00 10.7 3 Sur 14 Sur 0 955.8 -1.8 82
2021-02-05 03:00:00 10.3 4 Sudeste 9 Sur 0 956.2 -- 90
2021-02-05 02:00:00 10.7 7 Este 12 Sur 0 956.7 -- 89
2021-02-05 01:00:00 10.9 5 Este 10 Sudoeste 0 957.6 -- 90
2021-02-05 00:00:00 10.8 4 Sudoeste 9 Sur 0 958.2 -- 91
2021-02-04 23:00:00 10.5 6 Sur 8 Sur 0 958.4 -- 90
2021-02-04 22:00:00 10.7 4 Sur 9 Este 0 958.7 -- 89
2021-02-04 21:00:00 11.3 3 Sudeste 8 Nordeste 0 959.3 -- 85
2021-02-04 20:00:00 12.7 4 Nordeste 10 Nordeste 0 959.8 -- 81
2021-02-04 19:00:00 13.8 5 Nordeste 14 Nordeste 0 959.9 -- 77
2021-02-04 18:00:00 15.4 8 Norte 17 Nordeste 0 960 -- 69
2021-02-04 17:00:00 16.9 7 Nordeste 19 Nordeste 0 960.2 -- 60
2021-02-04 16:00:00 20.6 9 Sudoeste 24 Sudoeste 0 959.9 -- 40
2021-02-04 15:00:00 20.1 13 Sudoeste 26 Sur 0 960.2 -- 42
2021-02-04 14:00:00 19.1 16 Sur 33 Sur 0 960.8 -- 46
2021-02-04 13:00:00 18.4 18 Sur 34 Sur 0 961.6 -- 47
2021-02-04 12:00:00 16.5 18 Sur 36 Sur 0 961.6 -- 57
2021-02-04 11:00:00 11.8 6 Sur 13 Sur 0 961.9 -- 90
2021-02-04 10:00:00 10.1 2 Oeste 6 Sur 0 962.7 -- 92
2021-02-04 09:00:00 8.9 4 Sur 5 Sur 0 962.7 -- 91
2021-02-04 08:00:00 10.1 2 Norte 7 Este 0 962.7 -- 92
2021-02-04 07:00:00 10.2 2 Nordeste 10 Este 0 962.8 -- 92
2021-02-04 06:00:00 9 4 Sur 5 Sudoeste 0 963.3 -- 92
2021-02-04 05:00:00 8.4 4 Sur 8 Sur 0 963.8 -- 90
2021-02-04 04:00:00 9.6 3 Sur 4 Sur 0 964.3 -- 90
2021-02-04 03:00:00 10.2 4 Sur 6 Sur 0 964.9 -- 91
2021-02-04 02:00:00 10.4 5 Sur 7 Sur 0 965.5 -- 91
2021-02-04 01:00:00 10.9 4 Sur 7 Oeste 0 966.1 -- 91
2021-02-04 00:00:00 10.5 3 Oeste 7 Oeste 0 966.4 -- 91
2021-02-03 23:00:00 9.3 5 Sur 7 Sur 0 966.6 -- 90
2021-02-03 22:00:00 10 5 Sur 7 Sur 0 966.5 -- 88
2021-02-03 21:00:00 10.7 5 Sur 7 Sur 0 966.6 -- 86
2021-02-03 20:00:00 12.3 2 Sur 9 Noroeste 0 966.9 -- 78
2021-02-03 19:00:00 13.4 6 Noroeste 13 Noroeste 0 966.6 -- 72
2021-02-03 18:00:00 14.4 7 Norte 15 Norte 0 966.5 -- 68
2021-02-03 17:00:00 15.7 8 Norte 13 Norte 0 966.5 -- 60
2021-02-03 16:00:00 16.7 5 Norte 10 Norte 0 966.9 -- 57
2021-02-03 15:00:00 16.1 5 Norte 13 Este 0 967.4 -- 56
2021-02-03 14:00:00 16.3 4 Sur 8 Sur 0 968 -- 57
2021-02-03 13:00:00 14.2 4 Noroeste 10 Norte 0 969 -- 63
2021-02-03 12:00:00 13.3 4 Sudeste 9 Sudeste 0 969.7 -- 70
2021-02-03 11:00:00 11.7 5 Sudeste 7 Sur 0 969.8 -- 83
2021-02-03 10:00:00 10.1 5 Sur 9 Sur 0 969.9 -- 92
2021-02-03 09:00:00 9.3 6 Sur 9 Sur 0 969.6 -- 92
2021-02-03 08:00:00 9 5 Sudoeste 10 Sur 0 969.5 -- 92
2021-02-03 07:00:00 8.9 6 Sur 8 Sur 0 969 -- 92
2021-02-03 06:00:00 8.9 4 Sur 9 Oeste 0 969 -- 92
2021-02-03 05:00:00 9.3 4 Sudoeste 10 Sur 0 969.1 -- 93
2021-02-03 04:00:00 8.4 7 Sur 10 Sur 0 969.7 -- 93
2021-02-03 03:00:00 5.8 5 Sur 8 Sur 0 969.9 -- 91
2021-02-03 02:00:00 6.5 7 Sur 8 Sur 0 970 -- 92
2021-02-03 01:00:00 6.3 3 Sur 10 Sur 0 970.3 -- 91
2021-02-03 00:00:00 6.6 6 Sur 8 Sur 0 970.6 -- 91
2021-02-02 23:00:00 7 8 Sur 9 Sur 0 970.5 -- 90
2021-02-02 22:00:00 7.7 3 Sudoeste 8 Sur 0 970.4 -- 88
2021-02-02 21:00:00 8.5 6 Sur 8 Sur 0 970 -- 87
2021-02-02 20:00:00 10.3 7 Sur 8 Sur 0 970.3 -- 83
2021-02-02 19:00:00 13.1 6 Norte 13 Norte 0 970.1 -- 74
2021-02-02 18:00:00 15.1 8 Norte 13 Norte 0 969.6 -- 66
2021-02-02 17:00:00 16.4 5 Norte 10 Norte 0 969.4 -- 61
2021-02-02 16:00:00 16 6 Norte 13 Norte 0 969.6 -- 64
2021-02-02 15:00:00 16.1 6 Noroeste 16 Norte 0 970.5 -- 62
2021-02-02 14:00:00 16.4 9 Oeste 22 Oeste 0 971.5 -- 61
2021-02-02 13:00:00 14.7 5 Nordeste 11 Norte 0 972.4 -- 66
2021-02-02 12:00:00 12.9 4 Sudoeste 9 Norte 0 972.9 -- 75
2021-02-02 11:00:00 12.2 4 Noroeste 6 Norte 0 972.9 -- 77
2021-02-02 10:00:00 11.7 3 Noroeste 7 Oeste 0 972.6 -- 84
2021-02-02 09:00:00 11 0 Calma 5 Nordeste 0 972.8 -- 91
2021-02-02 08:00:00 11 2 Noroeste 4 Norte 0 972.6 -- 90
2021-02-02 07:00:00 11.1 0 Calma 5 Noroeste 0 972.5 -- 89
2021-02-02 06:00:00 11.1 3 Noroeste 5 Noroeste 0 972.7 -- 89
2021-02-02 05:00:00 11.1 2 Sudeste 4 Sur 0 972.7 -- 89
2021-02-02 04:00:00 11.2 0 Calma 3 Nordeste 0 972.9 -- 89
2021-02-02 03:00:00 11 2 Sur 5 Sudeste 0 972.9 -- 89
2021-02-02 02:00:00 10.9 3 Sudoeste 5 Sudoeste 0 973.3 -- 89
2021-02-02 01:00:00 10.7 3 Noroeste 8 Nordeste 0 973.5 -- 88
2021-02-02 00:00:00 10.2 5 Oeste 12 Oeste 0 973.3 -- 90
2021-02-01 23:00:00 10.5 2 Sur 5 Sur 0 973.2 -- 88
2021-02-01 22:00:00 10.4 3 Sur 14 Oeste 0 973.3 -- 88
2021-02-01 21:00:00 10.6 8 Oeste 21 Oeste 0 973.2 -- 86
2021-02-01 20:00:00 11.3 6 Oeste 13 Oeste 0 973.1 -- 84
2021-02-01 19:00:00 12.6 9 Oeste 29 Noroeste 0 972.5 -- 77
2021-02-01 18:00:00 15 15 Noroeste 29 Oeste 0 972.4 -- 68
2021-02-01 17:00:00 16.4 18 Oeste 28 Oeste 0 972.3 -- 62
2021-02-01 16:00:00 16.7 17 Oeste 31 Oeste 0 972.3 -- 59
2021-02-01 15:00:00 16.6 15 Oeste 28 Noroeste 0 972.3 -- 66
2021-02-01 14:00:00 15.4 16 Oeste 30 Noroeste 0 972.7 -- 70
2021-02-01 13:00:00 16.6 14 Oeste 27 Noroeste 0 972.9 -- 66
2021-02-01 12:00:00 14.6 13 Noroeste 24 Noroeste 0 973.1 -- 78
2021-02-01 11:00:00 12.9 10 Oeste 20 Oeste 0 973.2 -- 86
2021-02-01 10:00:00 12.6 13 Oeste 20 Noroeste 0 972.8 -- 88
2021-02-01 09:00:00 12.4 8 Noroeste 23 Noroeste 0 972.2 -- 89
2021-02-01 08:00:00 12.3 9 Noroeste 22 Noroeste 0 971.6 -- 90
2021-02-01 07:00:00 12.5 14 Oeste 28 Oeste 0 971.2 -- 91
2021-02-01 06:00:00 12.6 14 Oeste 34 Oeste 0 971.1 -- 92
2021-02-01 05:00:00 12.8 16 Noroeste 25 Oeste 0 971.3 -- 93
2021-02-01 04:00:00 13 13 Oeste 32 Oeste 0.2 971.3 -- 93
2021-02-01 03:00:00 13 13 Oeste 29 Oeste 1 971.7 -- 92
2021-02-01 02:00:00 12.9 10 Noroeste 29 Oeste 0.2 971.8 -- 92
2021-02-01 01:00:00 12.8 13 Oeste 26 Noroeste 0.6 971.9 -- 91
2021-02-01 00:00:00 12.6 12 Oeste 41 Oeste 0.4 971.6 -- 91
2021-01-31 23:00:00 12.9 22 Oeste 37 Sudoeste 0 971.6 -- 85
2021-01-31 22:00:00 12.5 20 Oeste 37 Oeste 0 971.1 -- 85
2021-01-31 21:00:00 12.5 19 Oeste 33 Oeste 0 970.9 -- 82
2021-01-31 20:00:00 12.9 6 Noroeste 19 Noroeste 0 971.6 -- 80
2021-01-31 19:00:00 13.3 11 Noroeste 21 Oeste 0 971.5 -- 79
2021-01-31 18:00:00 13.6 15 Oeste 38 Oeste 0 971.1 -- 75
2021-01-31 17:00:00 14.1 21 Oeste 39 Noroeste 0 971.7 -- 69
2021-01-31 16:00:00 14.5 22 Oeste 41 Oeste 0 971.6 -- 70
2021-01-31 15:00:00 15.2 23 Noroeste 43 Oeste 0 972.1 -- 67
2021-01-31 14:00:00 13 23 Oeste 42 Noroeste 0 972.7 -- 78
2021-01-31 13:00:00 11.6 15 Noroeste 28 Noroeste 0 973.5 -- 83
2021-01-31 12:00:00 10.7 13 Oeste 36 Oeste 0 974 -- 88
2021-01-31 11:00:00 10.1 14 Oeste 31 Oeste 0.2 973.9 -- 91
2021-01-31 10:00:00 9.7 16 Oeste 25 Oeste 0.2 973.4 -- 89
2021-01-31 09:00:00 9.3 10 Oeste 22 Noroeste 0 972.9 -- 86
2021-01-31 08:00:00 9.1 13 Noroeste 27 Oeste 0 972.8 -- 86
2021-01-31 07:00:00 8.8 13 Oeste 26 Oeste 0 972.4 -- 88
2021-01-31 06:00:00 8.4 13 Oeste 27 Oeste 0 971.5 -- 87
2021-01-31 05:00:00 8.6 14 Noroeste 29 Noroeste 0 971.6 -- 88
2021-01-31 04:00:00 8.8 14 Noroeste 32 Noroeste 0 971.3 -- 87
2021-01-31 03:00:00 9.2 17 Oeste 33 Noroeste 0 971.5 -- 88
2021-01-31 02:00:00 8.7 13 Noroeste 30 Oeste 0 971.6 -- 83
2021-01-31 01:00:00 9 17 Oeste 28 Oeste 0 971.8 -- 80
2021-01-31 00:00:00 9.3 14 Oeste 27 Oeste 0 971.7 -- 81
2021-01-30 23:00:00 10 13 Oeste 27 Noroeste 0 972.1 -- 78
2021-01-30 22:00:00 10.9 10 Oeste 24 Noroeste 0 971.5 -- 78
2021-01-30 21:00:00 11.3 13 Noroeste 24 Oeste 0 971.2 -- 84
2021-01-30 20:00:00 12.2 10 Oeste 19 Noroeste 0 970.9 -- 69
2021-01-30 19:00:00 12.4 8 Noroeste 31 Oeste 0 970.2 -- 67
2021-01-30 18:00:00 14 20 Oeste 44 Oeste 0 969.4 -- 59
2021-01-30 17:00:00 15.2 14 Noroeste 37 Oeste 0 969.8 -- 60
2021-01-30 16:00:00 15.8 23 Oeste 42 Oeste 0 969.7 -- 58
2021-01-30 15:00:00 15 21 Oeste 37 Oeste 0 970.2 -- 69
2021-01-30 14:00:00 14.8 23 Noroeste 45 Noroeste 0 970.6 -- 72
2021-01-30 13:00:00 13.6 30 Noroeste 46 Oeste 0.2 971.7 -- 83
2021-01-30 12:00:00 13.2 14 Oeste 27 Oeste 0.2 971.6 -- 92
2021-01-30 11:00:00 12.4 6 Oeste 13 Oeste 0.4 971.5 -- 92
2021-01-30 10:00:00 11.8 6 Sur 11 Oeste 0 971.8 -- 91
2021-01-30 09:00:00 11.3 6 Sudoeste 17 Sudoeste 0.2 972.1 -- 91
2021-01-30 08:00:00 11.2 5 Sudoeste 14 Noroeste 0 972.7 -- 90
2021-01-30 07:00:00 11.5 5 Oeste 19 Noroeste 0 972.6 -- 87
2021-01-30 06:00:00 11.3 5 Sudoeste 17 Noroeste 0 972.3 -- 86
2021-01-30 05:00:00 11.2 7 Noroeste 18 Oeste 0 972 -- 87
2021-01-30 04:00:00 11.5 3 Sudoeste 8 Sudeste 0 971.8 -- 91
2021-01-30 03:00:00 11.5 3 Sur 9 Noroeste 0 973.1 -- 91
2021-01-30 02:00:00 11.5 8 Noroeste 14 Noroeste 0 974.1 -- 92
2021-01-30 01:00:00 11.6 4 Oeste 16 Oeste 0 974.5 -- 91
2021-01-30 00:00:00 11.8 9 Oeste 15 Oeste 0 975.1 -- 91
2021-01-29 23:00:00 11.9 8 Noroeste 15 Oeste 0 974.8 -- 92
2021-01-29 22:00:00 12.1 3 Sudoeste 6 Noroeste 0 974.3 -- 93
2021-01-29 21:00:00 12 5 Oeste -- -- -- 974.4 -- 93
2021-01-29 20:00:00 12 5 Noroeste 17 Oeste 0 974.5 -- 93
2021-01-29 19:00:00 12.1 10 Oeste 20 Noroeste 0 974.4 -- 92
2021-01-29 18:00:00 12.7 10 Oeste 17 Oeste 0 974.1 -- 91
2021-01-29 17:00:00 13.7 9 Norte 17 Norte 0 973.9 -- 90
2021-01-29 16:00:00 17.1 10 Norte 14 Norte 0 973.7 -- 74
2021-01-29 15:00:00 15.9 5 Norte 12 Nordeste 0 974.2 -- 79
2021-01-29 14:00:00 13.9 4 Oeste 10 Norte 0 975 -- 87
2021-01-29 13:00:00 12.3 5 Nordeste 9 Nordeste 0 975.8 -- 91
2021-01-29 12:00:00 11.4 6 Nordeste 11 Nordeste 0 976.2 -- 92
2021-01-29 11:00:00 11.1 5 Nordeste 18 Norte 0 975.7 -- 89
2021-01-29 10:00:00 11.8 5 Oeste 10 Oeste 0.2 974.9 -- 90
2021-01-29 09:00:00 10.1 4 Sur 14 Sur 0 974.5 -- 92
2021-01-29 08:00:00 9.9 11 Sur 14 Sur 0 973.9 -- 92
2021-01-29 07:00:00 9.9 5 Sur 15 Sur 0 973.7 -- 92
2021-01-29 06:00:00 10 4 Sur 18 Sur 0 973.8 -- 92
2021-01-29 05:00:00 10.4 10 Sur 14 Sur 0 974 -- 92
2021-01-29 04:00:00 10.9 8 Sur 12 Sur 0 974.5 -- 92
2021-01-29 03:00:00 11.1 4 Sudeste 17 Sur 0 975.3 -- 92
2021-01-29 02:00:00 11.8 11 Sur 14 Sur 0 974.9 -- 92
2021-01-29 01:00:00 12.5 10 Sur 14 Sur 0 975.2 -- 92
2021-01-29 00:00:00 12.4 7 Sur 13 Sur 0 975.2 -- 91
2021-01-28 23:00:00 12.6 8 Sur 13 Sudoeste 0 974.9 -- 89
2021-01-28 22:00:00 12.5 6 Oeste 10 Oeste 0 975.1 -- 90
2021-01-28 21:00:00 12.9 3 Sudoeste 5 Oeste 0 974.8 -- 87
2021-01-28 20:00:00 14.6 3 Sudoeste 6 Sur 0 974.8 -- 81
2021-01-28 19:00:00 18.5 2 Sudoeste 7 Noroeste 0 974.5 -- 69
2021-01-28 18:00:00 23.5 4 Noroeste 12 Noroeste 0 974.3 -- 48
2021-01-28 17:00:00 25.5 0 Calma 8 Oeste 0 974.4 -- 25
2021-01-28 16:00:00 25.5 3 Sudoeste 10 Sur 0 974.5 -- 26
2021-01-28 15:00:00 24.6 4 Sur 11 Sur 0 974.6 -- 35
2021-01-28 14:00:00 22.8 7 Sur 13 Sur 0 975.4 -- 44
2021-01-28 13:00:00 20.2 9 Sur 16 Sur 0 976.1 -- 52
2021-01-28 12:00:00 17.3 6 Sur 12 Sur 0 976.7 -- 64
2021-01-28 11:00:00 13.7 6 Sur 12 Sur 0 976.6 -- 86
2021-01-28 10:00:00 10 0 Calma 13 Sur 0 976.3 -- 93
2021-01-28 09:00:00 8.1 10 Sur 14 Sur 0.2 976 -- 93
2021-01-28 08:00:00 7.8 4 Sur 10 Sur 0 975.8 -- 93
2021-01-28 07:00:00 7.5 6 Sur 11 Sur 0 975.6 -- 93
2021-01-28 06:00:00 7.9 6 Sur 9 Sur 0 975.7 -- 93
2021-01-28 05:00:00 7.2 2 Sudoeste 7 Sur 0 976 -- 92
2021-01-28 04:00:00 7.7 4 Sudeste 9 Sur 0 976.5 -- 93
2021-01-28 03:00:00 8 2 Sur 8 Sur 0 976.6 -- 92
2021-01-28 02:00:00 8.7 5 Sur 9 Sur 0 976.6 -- 92
2021-01-28 01:00:00 9.1 6 Sur 8 Sur 0 977.2 -- 92
2021-01-28 00:00:00 9 6 Sur 8 Sur 0 977.8 -- 92
2021-01-27 23:00:00 9.6 4 Sur 8 Sur 0 978 -- 91
2021-01-27 22:00:00 10.4 6 Sur 7 Sur 0 977.9 -- 90
2021-01-27 21:00:00 11.5 3 Sudoeste 5 Oeste 0 977.9 -- 88
2021-01-27 20:00:00 12.8 3 Sudoeste 4 Norte 0 977.7 -- 85
2021-01-27 19:00:00 14.8 4 Norte 17 Norte 0 977.2 -- 81
2021-01-27 18:00:00 16.1 13 Norte 19 Noroeste 0 976.7 -- 75
2021-01-27 17:00:00 16.6 12 Norte 19 Norte 0 976.7 -- 78
2021-01-27 16:00:00 16.9 13 Norte 20 Norte 0 976.9 -- 76
2021-01-27 15:00:00 18.1 10 Norte 17 Norte 0 977 -- 69
2021-01-27 14:00:00 17 9 Norte 18 Norte 0 977.5 -- 75
2021-01-27 13:00:00 16.6 7 Norte 17 Norte 0 978.3 -- 80
2021-01-27 12:00:00 15.4 8 Norte 15 Norte 0 978.6 -- 90
2021-01-27 11:00:00 14.6 7 Norte 12 Norte 0 978.3 -- 93
2021-01-27 10:00:00 14.4 3 Norte 11 Oeste 0 977.7 -- 93
2021-01-27 09:00:00 13.8 7 Sudoeste 10 Oeste 0 977.3 -- 93
2021-01-27 08:00:00 13.7 2 Norte 6 Noroeste 0 977.2 -- 93
2021-01-27 07:00:00 13.4 3 Noroeste 8 Noroeste 0 976.9 -- 93
2021-01-27 06:00:00 14 6 Noroeste 11 Oeste 0 976.8 -- 93
2021-01-27 05:00:00 14.1 0 Calma 6 Noroeste 0.2 977.3 -- 93
2021-01-27 04:00:00 14.1 5 Noroeste 10 Oeste 0.2 977.6 -- 93
2021-01-27 03:00:00 13.9 5 Oeste 8 Oeste 0 977.7 -- 93
2021-01-27 02:00:00 14.1 5 Sudoeste 8 Oeste 0 977.6 -- 93
2021-01-27 01:00:00 14.4 4 Oeste 6 Oeste 0 978.3 -- 93
2021-01-27 00:00:00 14.4 0 Calma 3 Oeste 0 978.5 -- 93
2021-01-26 23:00:00 14.5 2 Noroeste 9 Noroeste 0.2 978.3 -- 93
2021-01-26 22:00:00 14.5 3 Norte 14 Noroeste 0 978.1 -- 93
2021-01-26 21:00:00 14.6 6 Oeste 17 Oeste 0 978 -- 93
2021-01-26 20:00:00 14.7 8 Oeste 14 Oeste 0.2 977.7 -- 93
2021-01-26 19:00:00 14.7 5 Norte 12 Oeste 0.4 977.4 -- 92
2021-01-26 18:00:00 15.2 5 Oeste 13 Noroeste 0 976.7 -- 91
2021-01-26 17:00:00 15.3 9 Noroeste 20 Oeste 0 976.5 -- 90
2021-01-26 16:00:00 16.2 10 Oeste 23 Noroeste 0 976.5 -- 82
2021-01-26 15:00:00 16 12 Noroeste 21 Noroeste 0 976.7 -- 82
2021-01-26 14:00:00 15.2 9 Noroeste 15 Noroeste 0 977.1 -- 84
2021-01-26 13:00:00 15.3 10 Oeste 17 Noroeste 0 977.7 -- 83
2021-01-26 12:00:00 14.3 8 Oeste 17 Oeste 0 978.2 -- 91
2021-01-26 11:00:00 13.3 11 Oeste 19 Oeste 0.2 977.8 -- 93
2021-01-26 10:00:00 12.6 9 Oeste 15 Oeste 0 977 -- 93
2021-01-26 09:00:00 12.3 4 Oeste 18 Oeste 0 976.3 -- 93
2021-01-26 08:00:00 12.2 10 Oeste 28 Oeste 0 976 -- 93
2021-01-26 07:00:00 12.2 10 Oeste 23 Noroeste 0.2 975.4 -- 92
2021-01-26 06:00:00 12.2 12 Oeste 29 Oeste 0 975.2 -- 91
2021-01-26 05:00:00 12.6 15 Oeste 32 Oeste 0 975 -- 88
2021-01-26 04:00:00 12.8 14 Oeste 28 Oeste 0 974.8 -- 86
2021-01-26 03:00:00 13 13 Oeste 23 Oeste 0 974.5 -- 86
2021-01-26 02:00:00 13 8 Oeste 26 Oeste 0 973.8 -- 87
2021-01-26 01:00:00 13.1 14 Oeste 34 Sudoeste 0 973.5 -- 89
2021-01-26 00:00:00 13 9 Oeste 22 Oeste 0 973.4 -- 89
2021-01-25 23:00:00 13.5 9 Oeste 25 Oeste 0 973.1 -- 83
2021-01-25 22:00:00 13.5 15 Oeste 28 Oeste 0 972.4 -- 84
2021-01-25 21:00:00 13.6 13 Oeste 35 Oeste 0 972 -- 86
2021-01-25 20:00:00 13.8 20 Oeste 33 Oeste 0 971.3 -- 88
2021-01-25 19:00:00 13.9 15 Noroeste 38 Oeste 0 970.8 -- 89
2021-01-25 18:00:00 14.4 15 Oeste 44 Oeste 0 970.2 -- 87
2021-01-25 17:00:00 14.4 20 Oeste 36 Noroeste 0.8 969.5 -- 89
2021-01-25 16:00:00 15.6 22 Oeste 40 Oeste 0.8 969.3 -- 84
2021-01-25 15:00:00 14.9 21 Oeste 40 Oeste 0.2 969.2 -- 90
2021-01-25 14:00:00 14.7 14 Oeste 33 Oeste 0.8 969.6 -- 90
2021-01-25 13:00:00 14.5 14 Oeste 32 Oeste 0.2 970.5 -- 90
2021-01-25 12:00:00 13.9 9 Oeste 20 Sudoeste 0.2 971.1 -- 90
2021-01-25 11:00:00 13.7 10 Oeste 30 Oeste 0.2 970.8 -- 90
2021-01-25 10:00:00 12.3 14 Oeste 27 Oeste 0 970.3 -- 92
2021-01-25 09:00:00 11.7 14 Oeste 26 Oeste 0 970.2 -- 92
2021-01-25 08:00:00 11.2 8 Oeste 20 Oeste 0.4 970.3 -- 93
2021-01-25 07:00:00 10.6 5 Sur 7 Sur 0.2 969.6 -- 92
2021-01-25 06:00:00 10.3 4 Sur 10 Sur 0 969.8 -- 92
2021-01-25 05:00:00 10 4 Sudoeste 8 Sudoeste 0 970.1 -- 91
2021-01-25 04:00:00 9.7 3 Sur 5 Sur 0 970.3 -- 91
2021-01-25 03:00:00 10 3 Sur 7 Sudoeste 0 970.3 -- 90
2021-01-25 02:00:00 9.8 3 Sur 11 Sudoeste 0 970.7 -- 91
2021-01-25 01:00:00 9 4 Oeste 10 Oeste 0 970.9 -- 91
2021-01-25 00:00:00 8.7 6 Sur 8 Sur 0 971 -- 89